This is the latest recevied weather packets stored in our database for station/object EA6AMI-5. If no packets are shown the sender has not sent any weather packets the latest 10 day(s).
| Time | Temp. | Humidity | Pressure | Rain* | Wind** | Luminosity | Snow |
|---|---|---|---|---|---|---|---|
| 1787508544 | 28.89° C | 59% | 1016 hPa | 0 mm | - | 16 W/m² | - |
| 1787508003 | 29.44° C | 57% | 1015.7 hPa | 0 mm | - | 23 W/m² | - |
| 1787507643 | 29.44° C | 56% | 1015.6 hPa | 0 mm | - | 28 W/m² | - |
| 1787507103 | 30° C | 54% | 1015.7 hPa | 0 mm | - | 38 W/m² | - |
| 1787506563 | 30° C | 53% | 1015.8 hPa | 0 mm | - | 49 W/m² | - |
| 1787506023 | 30.56° C | 52% | 1015.8 hPa | 0 mm | - | 59 W/m² | - |
| 1787505484 | 30.56° C | 50% | 1015.9 hPa | 0 mm | - | 69 W/m² | - |
| 1787504944 | 30.56° C | 48% | 1016 hPa | 0 mm | - | 69 W/m² | - |
| 1787504403 | 31.11° C | 46% | 1015.9 hPa | 0 mm | - | 76 W/m² | - |
| 1787504044 | 31.11° C | 47% | 1015.8 hPa | 0 mm | - | 88 W/m² | - |
| 1787503504 | 31.67° C | 47% | 1016.1 hPa | 0 mm | - | 105 W/m² | - |
| 1787502963 | 31.67° C | 45% | 1015.8 hPa | 0 mm | - | 116 W/m² | - |
| 1787502424 | 32.22° C | 44% | 1015.9 hPa | 0 mm | - | 70 W/m² | - |
| 1787501883 | 31.67° C | 45% | 1015.8 hPa | 0 mm | - | 167 W/m² | - |
| 1787501343 | 31.11° C | 53% | 1015.9 hPa | 0 mm | - | 232 W/m² | - |
| 1787500804 | 31.67° C | 52% | 1015.9 hPa | 0 mm | - | 271 W/m² | - |
| 1787500443 | 31.67° C | 46% | 1015.8 hPa | 0 mm | - | 138 W/m² | - |
| 1787499904 | 30.56° C | 53% | 1015.8 hPa | 0 mm | - | 334 W/m² | - |
| 1787499364 | 30.56° C | 54% | 1015.9 hPa | 0 mm | - | 371 W/m² | - |
| 1787498823 | 31.67° C | 49% | 1015.8 hPa | 0 mm | - | 155 W/m² | - |
| 1787498283 | 31.67° C | 47% | 1015.9 hPa | 0 mm | - | 133 W/m² | - |
| 1787497743 | 31.11° C | 47% | 1016.2 hPa | 0 mm | - | 437 W/m² | - |
| 1787497203 | 31.67° C | 48% | 1016.1 hPa | 0 mm | - | 124 W/m² | - |
| 1787496843 | 31.67° C | 48% | 1016 hPa | 0 mm | - | 119 W/m² | - |
| 1787496303 | 31.67° C | 48% | 1016.1 hPa | 0 mm | - | 135 W/m² | - |
* Rain latest hour (hover to see other rain measurements)
** Current wind speed in m/s (hover to see current wind gust speed)